createdAt,value
2022-08-05T00:00:17.643Z,49.39
2022-08-05T00:02:50.998Z,49.28
2022-08-05T00:06:01.798Z,49.47
2022-08-05T00:08:34.409Z,49.88
2022-08-05T00:11:00.864Z,50.20
2022-08-05T00:13:39.098Z,49.71
2022-08-05T00:16:09.617Z,50.56
2022-08-05T00:18:41.037Z,50.00
2022-08-05T00:21:09.507Z,50.55
2022-08-05T00:23:45.716Z,50.26
2022-08-05T00:26:20.608Z,50.21
2022-08-05T00:28:49.232Z,50.41
2022-08-05T00:31:16.614Z,50.95
2022-08-05T00:34:54.967Z,52.43
2022-08-05T00:37:12.027Z,53.08
2022-08-05T00:39:57.120Z,53.50
2022-08-05T00:42:32.529Z,53.87
2022-08-05T00:45:00.526Z,54.56
2022-08-05T00:47:31.672Z,54.66
2022-08-05T00:50:15.263Z,55.69
2022-08-05T00:52:45.532Z,54.84
2022-08-05T00:55:14.041Z,55.47
2022-08-05T00:57:58.063Z,56.04
2022-08-05T01:00:27.602Z,56.77
2022-08-05T01:02:55.416Z,57.33
2022-08-05T01:05:23.576Z,56.79
2022-08-05T01:08:41.054Z,57.06
2022-08-05T01:10:58.220Z,57.85
2022-08-05T01:13:58.372Z,58.49
2022-08-05T01:17:05.283Z,57.03
2022-08-05T01:20:01.723Z,58.58
2022-08-05T01:23:14.322Z,58.50
2022-08-05T01:26:14.377Z,58.53
2022-08-05T01:28:57.661Z,59.68
2022-08-05T01:31:44.982Z,59.88
2022-08-05T01:34:32.604Z,59.83
2022-08-05T01:37:33.546Z,59.97
2022-08-05T01:40:06.277Z,60.04
2022-08-05T01:42:34.702Z,59.09
2022-08-05T01:45:03.353Z,60.01
2022-08-05T01:47:39.674Z,59.98
2022-08-05T01:50:15.302Z,60.64
2022-08-05T01:52:44.596Z,60.57
2022-08-05T01:55:18.392Z,60.70
2022-08-05T01:58:29.217Z,60.93
2022-08-05T02:00:38.796Z,60.07
2022-08-05T02:03:24.154Z,60.65
2022-08-05T02:05:59.686Z,60.74
2022-08-05T02:08:30.910Z,60.81
2022-08-05T02:11:11.711Z,61.52
2022-08-05T02:13:57.646Z,61.39
2022-08-05T02:16:29.200Z,61.28
2022-08-05T02:19:07.059Z,61.74
2022-08-05T02:21:42.902Z,61.23
2022-08-05T02:24:17.995Z,62.00
2022-08-05T02:26:54.012Z,62.67
2022-08-05T02:29:58.173Z,62.96
2022-08-05T02:32:12.640Z,63.52
2022-08-05T02:34:54.657Z,63.26
2022-08-05T02:37:23.143Z,63.62
2022-08-05T02:39:52.266Z,63.25
2022-08-05T02:42:25.667Z,63.73
2022-08-05T02:44:55.913Z,62.90
2022-08-05T02:47:26.446Z,63.20
2022-08-05T02:50:14.093Z,63.08
2022-08-05T02:52:46.639Z,63.32
2022-08-05T02:55:14.469Z,63.32
2022-08-05T02:58:20.175Z,63.31
2022-08-05T03:00:33.704Z,64.21
2022-08-05T03:03:02.388Z,64.36
2022-08-05T03:06:57.161Z,64.26
2022-08-05T03:08:26.910Z,64.28
2022-08-05T03:11:54.385Z,65.44
2022-08-05T03:13:51.038Z,65.26
2022-08-05T03:16:29.821Z,66.11
2022-08-05T03:18:59.739Z,66.15
2022-08-05T03:21:28.888Z,65.53
2022-08-05T03:24:00.673Z,65.84
2022-08-05T03:26:31.844Z,65.58
2022-08-05T03:29:00.082Z,65.19
2022-08-05T03:31:55.987Z,65.30
2022-08-05T03:34:15.810Z,64.87
2022-08-05T03:36:43.973Z,64.02
2022-08-05T03:39:12.969Z,64.35
2022-08-05T03:41:47.193Z,64.52
2022-08-05T03:44:19.953Z,64.65
2022-08-05T03:46:47.477Z,63.75
2022-08-05T03:49:15.831Z,64.04
2022-08-05T03:52:48.929Z,64.21
2022-08-05T03:55:34.754Z,64.21
2022-08-05T03:57:41.835Z,64.20
2022-08-05T04:00:15.812Z,63.65
2022-08-05T04:02:58.188Z,62.98
2022-08-05T04:05:33.316Z,62.72
2022-08-05T04:08:14.659Z,62.55
2022-08-05T04:10:54.373Z,61.81
2022-08-05T04:13:21.806Z,62.02
2022-08-05T04:16:02.672Z,62.67
2022-08-05T04:18:32.108Z,62.35
2022-08-05T04:20:59.623Z,62.89
2022-08-05T04:24:06.201Z,62.17
2022-08-05T04:26:17.428Z,61.84
2022-08-05T04:28:51.069Z,62.53
2022-08-05T04:31:19.978Z,61.67
2022-08-05T04:34:17.118Z,61.70
2022-08-05T04:36:45.753Z,60.03
2022-08-05T04:39:18.231Z,60.05
2022-08-05T04:41:45.988Z,59.39
2022-08-05T04:44:16.223Z,59.26
2022-08-05T04:46:48.861Z,58.68
2022-08-05T04:49:16.313Z,58.57
2022-08-05T04:51:44.502Z,57.98
2022-08-05T04:54:12.140Z,58.38
2022-08-05T04:56:39.676Z,58.00
2022-08-05T04:59:21.884Z,57.43
2022-08-05T05:02:35.372Z,56.95
2022-08-05T05:04:47.492Z,57.01
2022-08-05T05:07:21.174Z,56.75
2022-08-05T05:09:56.533Z,56.65
2022-08-05T05:12:24.371Z,57.21
2022-08-05T05:14:54.837Z,57.76
2022-08-05T05:17:24.629Z,58.48
2022-08-05T05:20:10.296Z,59.04
2022-08-05T05:22:40.906Z,59.19
2022-08-05T05:25:16.518Z,58.92
2022-08-05T05:27:53.575Z,58.58
2022-08-05T05:30:31.378Z,59.13
2022-08-05T05:33:03.744Z,60.00
2022-08-05T05:35:47.655Z,59.55
2022-08-05T05:38:22.796Z,59.66
2022-08-05T05:40:55.911Z,59.84
2022-08-05T05:43:54.793Z,60.24
2022-08-05T05:46:17.296Z,59.66
2022-08-05T05:48:48.346Z,60.64
2022-08-05T05:51:23.062Z,62.00
2022-08-05T05:53:57.758Z,62.60
2022-08-05T05:56:31.498Z,62.74
2022-08-05T05:59:05.692Z,62.91
2022-08-05T06:01:39.739Z,63.27
2022-08-05T06:04:12.250Z,64.06
2022-08-05T06:06:42.782Z,64.64
2022-08-05T06:09:17.655Z,64.21
2022-08-05T06:11:59.167Z,64.20
2022-08-05T06:14:29.204Z,64.74
2022-08-05T06:16:56.893Z,65.21
2022-08-05T06:19:26.199Z,64.76
2022-08-05T06:22:06.442Z,63.98
2022-08-05T06:24:34.766Z,64.19
2022-08-05T06:27:04.044Z,65.18
2022-08-05T06:29:49.416Z,65.11
2022-08-05T06:32:24.836Z,64.81
2022-08-05T06:34:56.423Z,63.94
2022-08-05T06:37:57.083Z,63.88
2022-08-05T06:40:12.411Z,64.03
2022-08-05T06:42:41.012Z,64.29
2022-08-05T06:45:09.475Z,63.65
2022-08-05T06:48:37.284Z,63.12
2022-08-05T06:50:26.544Z,62.92
2022-08-05T06:53:04.081Z,63.53
2022-08-05T06:55:41.989Z,63.13
2022-08-05T06:58:29.531Z,62.72
2022-08-05T07:01:00.049Z,62.22
2022-08-05T07:03:32.727Z,62.62
2022-08-05T07:06:06.293Z,63.67
2022-08-05T07:08:43.111Z,64.67
2022-08-05T07:11:22.152Z,65.07
2022-08-05T07:14:15.351Z,65.26
2022-08-05T07:17:59.875Z,65.23
2022-08-05T07:20:23.070Z,66.33
2022-08-05T07:22:28.249Z,66.83
2022-08-05T07:25:23.338Z,67.45
2022-08-05T07:27:57.639Z,67.19
2022-08-05T07:30:32.494Z,66.55
2022-08-05T07:33:01.634Z,67.05
2022-08-05T07:36:02.114Z,67.78
2022-08-05T07:38:32.910Z,67.83
2022-08-05T07:41:16.657Z,69.10
2022-08-05T07:43:50.720Z,70.08
2022-08-05T07:46:24.688Z,70.96
2022-08-05T07:49:03.257Z,71.46
2022-08-05T07:51:40.680Z,76.46
2022-08-05T07:54:16.512Z,76.19
2022-08-05T07:57:01.345Z,74.31
2022-08-05T07:59:40.575Z,74.58
2022-08-05T08:02:16.809Z,78.17
2022-08-05T08:04:48.327Z,77.92
2022-08-05T08:07:22.515Z,75.94
2022-08-05T08:09:52.372Z,74.96
2022-08-05T08:12:35.397Z,73.76
2022-08-05T08:15:15.658Z,72.65
2022-08-05T08:17:49.867Z,71.03
2022-08-05T08:20:45.328Z,69.82
2022-08-05T08:24:03.224Z,69.15
2022-08-05T08:25:59.830Z,69.34
2022-08-05T08:28:37.404Z,69.94
2022-08-05T08:31:17.602Z,69.48
2022-08-05T08:33:45.322Z,69.39
2022-08-05T08:36:38.852Z,69.11
2022-08-05T08:38:59.948Z,68.62
2022-08-05T08:41:52.728Z,68.34
2022-08-05T08:45:23.211Z,68.67
2022-08-05T08:47:47.725Z,67.97
2022-08-05T08:50:22.760Z,68.13
2022-08-05T08:52:53.489Z,67.46
2022-08-05T08:56:02.177Z,67.62
2022-08-05T08:58:10.224Z,67.24
2022-08-05T09:00:41.791Z,66.97
2022-08-05T09:03:09.543Z,66.79
2022-08-05T09:05:38.248Z,66.77
2022-08-05T09:08:06.458Z,66.44
2022-08-05T09:10:37.103Z,67.08
2022-08-05T09:13:08.028Z,66.06
2022-08-05T09:15:36.937Z,65.80
2022-08-05T09:18:06.532Z,65.44
2022-08-05T09:20:37.629Z,64.94
2022-08-05T09:23:18.900Z,64.65
2022-08-05T09:26:09.134Z,64.45
2022-08-05T09:28:38.574Z,64.55
2022-08-05T09:32:38.525Z,64.10
2022-08-05T09:34:05.683Z,66.37
2022-08-05T09:36:55.574Z,68.34
2022-08-05T09:39:45.779Z,67.96
2022-08-05T09:42:28.266Z,69.41
2022-08-05T09:45:17.376Z,71.38
